Time;durP1;ratioP1;P1;durP2;ratioP2;P2;SDS_P1;SDS_P2;PMS_P1;PMS_P2;Temp;Humidity;BMP_temperature;BMP_pressure;BME280_temperature;BME280_humidity;BME280_pressure;Samples;Min_cycle;Max_cycle;Signal;HPM_P1;HPM_P2
2022/09/23 00:00:06;;;;;;;;;;;;;;;10.66;66.90;101047.84;5069549;28;19912;-89
2022/09/23 00:02:31;;;;;;;;;;;;;;;10.70;66.70;101037.63;5053058;28;20011;-91
2022/09/23 00:04:57;;;;;;;;;;;;;;;10.63;66.29;101045.47;5060519;28;20443;-90
2022/09/23 00:07:24;;;;;;;;;;;;;;;10.61;66.12;101039.41;5065221;28;19975;-89
2022/09/23 00:09:50;;;;;;;;;;;;;;;10.50;65.67;101042.28;5063190;28;19916;-89
2022/09/23 00:12:16;;;;;;;;;;;;;;;10.52;65.30;101043.84;5052412;28;19942;-88
2022/09/23 00:14:45;;;;;;;;;;;;;;;10.49;64.88;101049.53;5077174;28;19927;-88
2022/09/23 00:17:12;;;;;;;;;;;;;;;10.44;64.93;101053.63;5079846;28;19952;-87
2022/09/23 00:19:39;;;;;;;;;;;;;;;10.44;64.81;101053.63;5082530;28;19927;-89
2022/09/23 00:22:04;;;;;;;;;;;;;;;10.44;64.81;101053.63;5070627;28;19927;-91
2022/09/23 00:24:31;;;;;;;;;;;;;;;10.54;64.06;101052.59;5085044;28;19916;-89
2022/09/23 00:26:57;;;;;;;;;;;;;;;10.45;64.58;101055.34;5066212;28;19970;-89
2022/09/23 00:29:26;;;;;;;;;;;;;;;10.30;64.72;101058.53;5052758;28;20419;-89
2022/09/23 00:31:51;;;;;;;;;;;;;;;10.41;64.37;101060.16;5086383;28;19924;-90
2022/09/23 00:34:17;;;;;;;;;;;;;;;10.38;64.64;101060.47;5064218;28;19927;-88
2022/09/23 00:36:43;;;;;;;;;;;;;;;10.33;64.97;101052.03;5093353;28;19916;-89
2022/09/23 00:39:09;;;;;;;;;;;;;;;10.41;64.87;101059.31;5089032;28;19904;-90
2022/09/23 00:41:37;;;;;;;;;;;;;;;10.40;65.02;101057.66;5070635;28;19923;-91
2022/09/23 00:44:26;;;;;;;;;;;;;;;10.49;64.32;101051.38;5074010;28;19920;-88
2022/09/23 00:46:51;;;;;;;;;;;;;;;10.38;64.53;101059.63;5051024;28;19935;-90
2022/09/23 00:49:20;;;;;;;;;;;;;;;10.34;64.46;101059.91;5076449;28;19924;-90
2022/09/23 00:51:52;;;;;;;;;;;;;;;10.33;64.49;101058.25;5091515;28;19905;-88
2022/09/23 00:54:18;;;;;;;;;;;;;;;10.38;64.53;101060.47;5063098;28;19916;-89
2022/09/23 00:56:44;;;;;;;;;;;;;;;10.38;64.47;101062.31;5089730;28;20014;-87
2022/09/23 00:59:11;;;;;;;;;;;;;;;10.28;65.10;101060.53;5070415;28;19924;-91
2022/09/23 01:01:37;;;;;;;;;;;;;;;10.38;64.98;101059.63;5045778;28;19927;-91
2022/09/23 01:04:03;;;;;;;;;;;;;;;10.48;64.79;101057.72;5069530;28;19979;-90
2022/09/23 01:06:28;;;;;;;;;;;;;;;10.53;65.23;101060.81;5074507;28;19923;-90
2022/09/23 01:08:53;;;;;;;;;;;;;;;10.61;65.32;101052.84;5073895;28;20426;-90
2022/09/23 01:11:38;;;;;;;;;;;;;;;10.62;65.75;101051.00;5066941;28;19935;-90
2022/09/23 01:14:20;;;;;;;;;;;;;;;10.54;65.67;101057.13;5053467;28;19988;-90
2022/09/23 01:17:02;;;;;;;;;;;;;;;10.64;65.22;101057.91;5070020;28;19926;-90
2022/09/23 01:19:47;;;;;;;;;;;;;;;10.68;64.55;101062.00;5055652;28;19916;-90
2022/09/23 01:22:25;;;;;;;;;;;;;;;10.81;63.79;101060.78;5092913;28;19975;-89
2022/09/23 01:25:07;;;;;;;;;;;;;;;10.89;63.33;101060.88;5072748;28;19905;-91
2022/09/23 01:27:40;;;;;;;;;;;;;;;10.99;62.79;101049.00;5097187;28;19904;-87
2022/09/23 01:30:08;;;;;;;;;;;;;;;11.06;62.65;101053.78;5086481;28;19943;-88
2022/09/23 01:32:48;;;;;;;;;;;;;;;10.96;62.74;101059.25;5087245;28;19967;-88
2022/09/23 01:35:33;;;;;;;;;;;;;;;11.09;62.51;101056.16;5050365;28;20376;-88
2022/09/23 01:38:17;;;;;;;;;;;;;;;11.13;62.23;101050.31;5086640;28;19935;-88
2022/09/23 01:40:51;;;;;;;;;;;;;;;11.12;62.28;101043.25;5092708;28;19967;-87
2022/09/23 01:43:16;;;;;;;;;;;;;;;11.09;62.02;101043.53;5049726;28;19986;-90
2022/09/23 01:45:45;;;;;;;;;;;;;;;11.13;61.95;101044.94;5083053;28;20356;-90
2022/09/23 01:48:13;;;;;;;;;;;;;;;11.22;62.02;101047.72;5063424;28;19916;-89
2022/09/23 01:50:57;;;;;;;;;;;;;;;11.33;61.89;101053.69;5074730;28;19924;-91
2022/09/23 01:53:31;;;;;;;;;;;;;;;11.28;62.20;101052.44;5061758;28;19928;-89
2022/09/23 01:55:59;;;;;;;;;;;;;;;11.28;61.78;101063.22;5062161;28;19916;-91
2022/09/23 01:58:28;;;;;;;;;;;;;;;11.09;62.38;101051.63;5054319;28;19921;-90
2022/09/23 02:01:00;;;;;;;;;;;;;;;11.12;62.14;101061.22;5074338;28;19959;-91
2022/09/23 02:03:28;;;;;;;;;;;;;;;11.07;62.28;101061.69;5035505;28;19974;-91
2022/09/23 02:05:58;;;;;;;;;;;;;;;11.10;62.16;101056.00;5060247;28;19920;-91
2022/09/23 02:08:28;;;;;;;;;;;;;;;11.11;62.28;101052.31;5032926;28;19916;-92
2022/09/23 02:10:57;;;;;;;;;;;;;;;11.08;62.68;101062.56;5025889;28;20341;-89
2022/09/23 02:13:28;;;;;;;;;;;;;;;11.02;62.76;101058.63;5035235;28;19921;-89
2022/09/23 02:15:55;;;;;;;;;;;;;;;10.85;63.56;101056.78;5027358;28;19929;-90
2022/09/23 02:18:25;;;;;;;;;;;;;;;10.82;63.74;101063.31;5035435;28;19916;-89
2022/09/23 02:20:52;;;;;;;;;;;;;;;10.82;63.75;101066.00;5037018;28;19924;-89
2022/09/23 02:23:26;;;;;;;;;;;;;;;10.75;63.95;101060.38;5030855;28;20306;-91
2022/09/23 02:25:54;;;;;;;;;;;;;;;10.73;63.81;101059.69;5019824;28;19920;-90
2022/09/23 02:28:38;;;;;;;;;;;;;;;10.58;64.60;101061.19;5054814;28;19924;-88
2022/09/23 02:31:43;;;;;;;;;;;;;;;10.69;64.60;101052.91;5053513;28;19913;-91
2022/09/23 02:34:12;;;;;;;;;;;;;;;10.54;65.81;101060.66;5040659;28;19971;-92
2022/09/23 02:37:03;;;;;;;;;;;;;;;10.34;66.32;101045.63;5004047;28;19939;-92
2022/09/23 02:39:31;;;;;;;;;;;;;;;10.45;65.87;101049.97;5040082;28;20098;-91
2022/09/23 02:42:07;;;;;;;;;;;;;;;10.47;65.66;101054.19;5010231;28;19950;-90
2022/09/23 02:44:32;;;;;;;;;;;;;;;10.34;66.08;101046.47;5032774;28;19928;-89
2022/09/23 02:46:59;;;;;;;;;;;;;;;10.46;65.72;101054.34;5051055;28;19921;-89
2022/09/23 02:49:28;;;;;;;;;;;;;;;10.39;65.43;101058.63;5033097;28;19940;-90
2022/09/23 02:51:55;;;;;;;;;;;;;;;10.40;65.24;101061.19;5028607;28;19920;-90
2022/09/23 02:54:21;;;;;;;;;;;;;;;10.43;65.19;101057.34;5031744;28;19939;-91
2022/09/23 02:56:52;;;;;;;;;;;;;;;10.43;64.90;101057.34;5032054;28;20023;-88
2022/09/23 02:59:18;;;;;;;;;;;;;;;10.45;64.37;101053.50;5048327;28;19916;-88
2022/09/23 03:01:57;;;;;;;;;;;;;;;10.52;64.40;101059.13;5052032;28;19917;-88
2022/09/23 03:04:31;;;;;;;;;;;;;;;10.54;64.19;101049.06;5043423;28;19956;-89
2022/09/23 03:07:00;;;;;;;;;;;;;;;10.50;64.19;101058.44;5041694;28;19917;-90
2022/09/23 03:09:32;;;;;;;;;;;;;;;10.53;63.96;101068.88;5047345;28;19951;-89
2022/09/23 03:12:20;;;;;;;;;;;;;;;10.55;63.99;101064.19;5050477;28;20361;-87
2022/09/23 03:14:53;;;;;;;;;;;;;;;10.55;63.90;101067.72;5049841;28;19993;-88
2022/09/23 03:17:24;;;;;;;;;;;;;;;10.55;63.94;101064.19;5046343;28;19916;-90
2022/09/23 03:20:08;;;;;;;;;;;;;;;10.64;63.43;101065.97;5053370;28;19912;-90
2022/09/23 03:22:38;;;;;;;;;;;;;;;10.52;63.72;101061.81;5050755;28;20410;-87
2022/09/23 03:25:14;;;;;;;;;;;;;;;10.50;63.55;101069.19;5037378;28;19932;-88
2022/09/23 03:27:41;;;;;;;;;;;;;;;10.47;63.74;101069.50;5061860;28;20341;-88
2022/09/23 03:30:06;;;;;;;;;;;;;;;10.60;63.51;101059.19;5054122;28;19915;-89
2022/09/23 03:32:32;;;;;;;;;;;;;;;10.56;63.49;101060.53;5075026;28;19922;-91
2022/09/23 03:35:00;;;;;;;;;;;;;;;10.57;63.58;101060.34;5054222;28;19919;-90
2022/09/23 03:37:32;;;;;;;;;;;;;;;10.57;63.58;101064.88;5053943;28;19962;-91
2022/09/23 03:40:03;;;;;;;;;;;;;;;10.48;64.17;101071.16;5050626;28;19989;-88
2022/09/23 03:42:29;;;;;;;;;;;;;;;10.50;64.01;101078.09;5062900;28;19993;-90
2022/09/23 03:44:56;;;;;;;;;;;;;;;10.54;64.09;101066.03;5052020;28;19920;-91
2022/09/23 03:47:24;;;;;;;;;;;;;;;10.54;64.17;101071.41;5050451;28;20044;-88
2022/09/23 03:49:49;;;;;;;;;;;;;;;10.57;64.17;101072.97;5046159;28;19924;-86
2022/09/23 03:52:15;;;;;;;;;;;;;;;10.56;64.28;101077.50;5048906;28;19917;-85
2022/09/23 03:54:41;;;;;;;;;;;;;;;10.51;64.29;101073.53;5070550;28;19924;-83
2022/09/23 03:57:06;;;;;;;;;;;;;;;10.46;64.44;101078.53;5062872;28;19966;-89
2022/09/23 03:59:34;;;;;;;;;;;;;;;10.39;64.58;101077.44;5060830;28;19920;-88
2022/09/23 04:02:02;;;;;;;;;;;;;;;10.42;64.53;101077.13;5069786;28;19916;-87
2022/09/23 04:04:27;;;;;;;;;;;;;;;10.44;64.59;101083.22;5069742;28;19917;-87
2022/09/23 04:06:54;;;;;;;;;;;;;;;10.40;64.37;101079.16;5049837;28;19926;-86
2022/09/23 04:09:23;;;;;;;;;;;;;;;10.32;64.69;101088.81;5068714;28;19985;-90
2022/09/23 04:11:49;;;;;;;;;;;;;;;10.29;64.87;101078.34;5065558;28;19924;-89
2022/09/23 04:14:17;;;;;;;;;;;;;;;10.29;64.82;101080.19;5055836;28;19916;-85
2022/09/23 04:16:42;;;;;;;;;;;;;;;10.30;64.97;101085.41;5061985;28;19969;-85
2022/09/23 04:19:09;;;;;;;;;;;;;;;10.36;64.48;101086.66;5028247;28;19920;-85
2022/09/23 04:21:35;;;;;;;;;;;;;;;10.28;64.60;101081.16;5049557;28;19920;-88
2022/09/23 04:24:01;;;;;;;;;;;;;;;10.25;64.79;101081.44;5072887;28;19916;-90
2022/09/23 04:26:27;;;;;;;;;;;;;;;10.18;65.09;101083.88;5029774;28;19912;-89
2022/09/23 04:28:53;;;;;;;;;;;;;;;10.21;64.91;101091.66;5050857;28;19928;-85
2022/09/23 04:31:18;;;;;;;;;;;;;;;10.28;65.16;101103.53;5053305;28;20376;-88
2022/09/23 04:33:43;;;;;;;;;;;;;;;10.25;64.76;101098.41;5063605;28;19990;-86
2022/09/23 04:36:09;;;;;;;;;;;;;;;10.17;65.02;101106.38;5041120;28;19949;-86
2022/09/23 04:38:34;;;;;;;;;;;;;;;10.19;65.03;101099.00;5071871;28;19921;-87
2022/09/23 04:41:02;;;;;;;;;;;;;;;10.20;65.00;101114.13;5071180;28;19912;-87
2022/09/23 04:43:27;;;;;;;;;;;;;;;10.26;65.13;101102.78;5076287;28;19926;-90
2022/09/23 04:45:56;;;;;;;;;;;;;;;10.31;64.90;101099.69;5052804;28;19990;-86
2022/09/23 04:48:23;;;;;;;;;;;;;;;10.32;64.80;101104.94;5061225;28;19924;-83
2022/09/23 04:50:48;;;;;;;;;;;;;;;10.26;64.97;101108.16;5080664;28;19958;-87
2022/09/23 04:53:15;;;;;;;;;;;;;;;10.35;64.85;101110.00;5054323;28;19916;-85
2022/09/23 04:55:42;;;;;;;;;;;;;;;10.38;64.81;101110.69;5071117;28;19912;-86
2022/09/23 04:58:08;;;;;;;;;;;;;;;10.39;64.72;101115.06;5071949;28;20007;-86
2022/09/23 05:00:34;;;;;;;;;;;;;;;10.43;64.43;101111.09;5076659;28;19983;-86
2022/09/23 05:02:59;;;;;;;;;;;;;;;10.46;64.35;101113.47;5075854;28;19962;-85
2022/09/23 05:05:27;;;;;;;;;;;;;;;10.55;64.12;101112.59;5073663;28;19912;-86
2022/09/23 05:07:53;;;;;;;;;;;;;;;10.63;64.10;101109.13;5070675;28;19926;-86
2022/09/23 05:10:18;;;;;;;;;;;;;;;10.74;63.66;101109.78;5050178;28;19920;-86
2022/09/23 05:12:45;;;;;;;;;;;;;;;10.80;63.24;101116.41;5051954;28;20004;-86
2022/09/23 05:15:15;;;;;;;;;;;;;;;10.87;62.90;101103.22;5053186;28;19913;-87
2022/09/23 05:17:42;;;;;;;;;;;;;;;10.98;62.51;101111.91;5050763;28;19916;-86
2022/09/23 05:20:10;;;;;;;;;;;;;;;11.15;62.15;101106.69;5035854;28;20765;-86
2022/09/23 05:22:35;;;;;;;;;;;;;;;11.25;61.55;101106.59;5049881;28;19921;-86
2022/09/23 05:25:04;;;;;;;;;;;;;;;11.24;61.28;101099.50;5050588;28;19917;-86
2022/09/23 05:27:30;;;;;;;;;;;;;;;11.36;60.37;101104.50;5033925;28;20053;-85
2022/09/23 05:29:55;;;;;;;;;;;;;;;11.44;60.44;101106.41;5052815;28;20391;-88
2022/09/23 05:32:21;;;;;;;;;;;;;;;11.65;60.72;101107.94;5055165;28;19912;-90
2022/09/23 05:34:46;;;;;;;;;;;;;;;11.78;61.50;101114.59;5071765;28;19913;-88
2022/09/23 05:37:13;;;;;;;;;;;;;;;12.20;60.21;101113.88;5074372;28;19934;-88
2022/09/23 05:39:39;;;;;;;;;;;;;;;12.79;59.05;101110.41;5049648;28;19917;-90
2022/09/23 05:42:05;;;;;;;;;;;;;;;13.84;56.46;101118.78;5058278;28;20287;-87
2022/09/23 05:44:37;;;;;;;;;;;;;;;13.91;55.89;101119.78;5058839;28;21250;-92
2022/09/23 05:47:04;;;;;;;;;;;;;;;14.12;54.04;101128.19;5044672;28;19970;-86
2022/09/23 05:49:35;;;;;;;;;;;;;;;14.90;52.98;101126.53;5053198;28;19964;-89
2022/09/23 05:52:01;;;;;;;;;;;;;;;15.38;51.02;101129.94;5061769;28;19920;-91
2022/09/23 05:54:29;;;;;;;;;;;;;;;15.17;51.42;101132.44;5072205;28;19924;-90
2022/09/23 05:56:57;;;;;;;;;;;;;;;14.94;51.44;101137.88;5060039;28;19988;-89
2022/09/23 05:59:24;;;;;;;;;;;;;;;14.76;52.15;101140.81;5054933;28;19967;-87
2022/09/23 06:01:51;;;;;;;;;;;;;;;14.86;52.42;101146.84;5056480;28;19924;-90
2022/09/23 06:04:17;;;;;;;;;;;;;;;14.76;52.23;101154.34;5063486;28;19919;-90
2022/09/23 06:06:44;;;;;;;;;;;;;;;14.57;52.77;101153.75;5082528;28;19943;-91
2022/09/23 06:09:50;;;;;;;;;;;;;;;14.20;53.98;101167.03;5084297;28;19912;-94
2022/09/23 06:12:43;;;;;;;;;;;;;;;14.11;54.15;101172.44;5068148;28;19924;-92
2022/09/23 06:17:59;;;;;;;;;;;;;;;14.33;53.72;101172.75;5071177;28;19920;-91
2022/09/23 06:23:33;;;;;;;;;;;;;;;14.29;53.83;101171.41;5091135;28;19925;-93
2022/09/23 06:26:13;;;;;;;;;;;;;;;14.46;53.13;101173.03;5163909;22;19921;-91
2022/09/23 06:31:37;;;;;;;;;;;;;;;;;;;;;
2022/09/23 06:34:05;;;;;;;;;;;;;;;14.89;51.68;101179.00;5031932;28;20388;-86
2022/09/23 06:36:30;;;;;;;;;;;;;;;15.17;50.98;101175.78;5022934;28;19913;-89
2022/09/23 06:38:56;;;;;;;;;;;;;;;15.47;50.03;101181.34;5033606;28;19917;-90
2022/09/23 06:41:21;;;;;;;;;;;;;;;16.08;48.76;101189.53;5016732;28;19949;-89
2022/09/23 06:43:47;;;;;;;;;;;;;;;16.62;47.77;101186.56;5034926;28;19960;-90
2022/09/23 06:46:14;;;;;;;;;;;;;;;17.49;45.61;101181.16;5033480;28;19928;-89
2022/09/23 06:48:42;;;;;;;;;;;;;;;18.18;43.98;101185.13;5044461;28;20380;-88
2022/09/23 06:51:11;;;;;;;;;;;;;;;18.89;42.78;101170.47;4996118;28;21810;-90
2022/09/23 06:53:38;;;;;;;;;;;;;;;19.37;41.19;101176.69;5029002;28;19974;-88
2022/09/23 06:56:06;;;;;;;;;;;;;;;19.93;39.91;101164.63;5017949;28;19913;-87
2022/09/23 06:58:46;;;;;;;;;;;;;;;20.48;38.92;101168.94;5019062;28;20293;-90
2022/09/23 07:01:13;;;;;;;;;;;;;;;21.07;37.72;101163.28;5031461;28;19944;-90
2022/09/23 07:03:40;;;;;;;;;;;;;;;21.64;37.06;101168.84;5017348;28;19921;-87
2022/09/23 07:06:09;;;;;;;;;;;;;;;22.06;35.66;101160.91;5036516;28;19955;-89
2022/09/23 07:08:35;;;;;;;;;;;;;;;22.81;34.39;101161.84;5045462;28;19923;-88
2022/09/23 07:11:01;;;;;;;;;;;;;;;22.82;33.55;101166.22;5020036;28;19921;-89
2022/09/23 07:13:29;;;;;;;;;;;;;;;23.31;32.54;101159.69;5025976;28;19923;-89
2022/09/23 07:15:57;;;;;;;;;;;;;;;23.68;31.73;101154.06;5019343;28;19975;-86
2022/09/23 07:18:22;;;;;;;;;;;;;;;24.21;30.46;101155.91;5025457;28;19917;-89
2022/09/23 07:20:49;;;;;;;;;;;;;;;24.74;29.74;101155.97;5034915;28;19924;-90
2022/09/23 07:23:16;;;;;;;;;;;;;;;25.17;28.19;101144.47;5021870;28;19917;-89
2022/09/23 07:25:45;;;;;;;;;;;;;;;25.81;27.50;101140.63;5035795;28;19958;-89
2022/09/23 07:28:11;;;;;;;;;;;;;;;26.52;25.20;101149.13;5036019;28;19916;-91
2022/09/23 07:30:37;;;;;;;;;;;;;;;27.15;25.34;101146.88;5016536;28;20684;-89
2022/09/23 07:33:03;;;;;;;;;;;;;;;27.62;23.55;101145.41;5024880;28;20023;-90
2022/09/23 07:35:29;;;;;;;;;;;;;;;28.19;22.02;101136.50;5034376;28;19909;-90
2022/09/23 07:37:55;;;;;;;;;;;;;;;28.44;21.57;101138.53;5024475;28;19940;-89
2022/09/23 07:40:22;;;;;;;;;;;;;;;28.92;21.79;101131.03;5027480;28;19917;-90
2022/09/23 07:42:48;;;;;;;;;;;;;;;29.20;21.59;101132.50;5038044;28;19924;-92
2022/09/23 07:45:14;;;;;;;;;;;;;;;29.37;21.50;101129.47;5034024;28;19921;-90
2022/09/23 07:47:54;;;;;;;;;;;;;;;30.44;20.33;101127.72;5023020;28;19923;-89
2022/09/23 07:50:21;;;;;;;;;;;;;;;31.27;19.20;101128.97;5019631;28;21467;-91
2022/09/23 07:52:51;;;;;;;;;;;;;;;31.30;18.57;101129.22;5025655;28;19982;-89
2022/09/23 07:55:18;;;;;;;;;;;;;;;32.08;18.00;101126.66;5019314;28;19992;-88
2022/09/23 07:57:43;;;;;;;;;;;;;;;32.95;16.62;101123.63;5035565;28;20369;-87
2022/09/23 08:00:09;;;;;;;;;;;;;;;33.27;16.51;101124.88;5011822;28;19917;-90
2022/09/23 08:02:35;;;;;;;;;;;;;;;34.27;15.94;101127.31;5040008;28;19920;-91
2022/09/23 08:05:01;;;;;;;;;;;;;;;34.79;14.73;101129.88;5017729;28;19936;-96
2022/09/23 08:07:29;;;;;;;;;;;;;;;35.17;14.91;101129.59;5036967;28;19919;-95
2022/09/23 08:09:57;;;;;;;;;;;;;;;35.50;14.35;101131.03;5037420;28;19944;-92
2022/09/23 08:12:26;;;;;;;;;;;;;;;35.86;14.69;101124.50;5039232;28;19917;-95
2022/09/23 08:14:59;;;;;;;;;;;;;;;36.61;13.61;101121.91;5002403;28;19972;-94
2022/09/23 08:17:35;;;;;;;;;;;;;;;37.06;13.50;101123.59;5035201;28;20007;-92
2022/09/23 08:20:01;;;;;;;;;;;;;;;36.71;13.85;101116.00;5014609;28;19955;-91
2022/09/23 08:22:28;;;;;;;;;;;;;;;37.46;12.81;101107.41;5029350;28;19944;-89
2022/09/23 08:24:54;;;;;;;;;;;;;;;37.76;12.39;101111.19;5027846;28;19927;-87
2022/09/23 08:27:19;;;;;;;;;;;;;;;38.13;12.23;101113.56;5031457;28;20028;-87
2022/09/23 08:29:46;;;;;;;;;;;;;;;38.60;11.49;101105.88;5016083;28;19924;-86
2022/09/23 08:32:11;;;;;;;;;;;;;;;39.23;11.33;101105.91;5033096;28;19917;-90
2022/09/23 08:34:38;;;;;;;;;;;;;;;39.60;10.77;101106.06;5031082;28;20340;-87
2022/09/23 08:37:08;;;;;;;;;;;;;;;39.41;10.26;101103.78;5015542;28;19924;-87
2022/09/23 08:39:33;;;;;;;;;;;;;;;40.12;10.01;101101.81;5024252;28;19924;-87
2022/09/23 08:42:06;;;;;;;;;;;;;;;39.97;10.18;101099.69;5035379;28;19921;-87
2022/09/23 08:44:53;;;;;;;;;;;;;;;38.41;10.90;101089.47;5025172;28;19964;-87
2022/09/23 08:47:29;;;;;;;;;;;;;;;39.16;10.15;101088.78;5032203;28;20019;-88
2022/09/23 08:49:56;;;;;;;;;;;;;;;39.53;10.22;101093.75;5025576;28;19927;-88
2022/09/23 08:52:38;;;;;;;;;;;;;;;40.36;9.92;101098.22;5007418;28;19927;-89
2022/09/23 08:55:05;;;;;;;;;;;;;;;40.91;9.41;101093.09;5045730;28;19909;-89
2022/09/23 08:57:39;;;;;;;;;;;;;;;40.93;9.48;101094.38;5035960;28;19921;-91
2022/09/23 09:00:06;;;;;;;;;;;;;;;41.24;9.28;101087.22;5032981;28;19909;-89
2022/09/23 09:02:35;;;;;;;;;;;;;;;41.95;9.18;101093.16;5036522;28;20016;-90
2022/09/23 09:05:05;;;;;;;;;;;;;;;42.60;8.97;101078.63;5035673;28;19913;-90
2022/09/23 09:07:31;;;;;;;;;;;;;;;42.81;7.93;101081.13;5031080;28;20361;-89
2022/09/23 09:10:05;;;;;;;;;;;;;;;41.63;9.05;101073.41;5022181;28;19913;-89
2022/09/23 09:12:44;;;;;;;;;;;;;;;41.66;8.65;101074.69;5025307;28;19944;-91
2022/09/23 09:15:13;;;;;;;;;;;;;;;42.55;8.43;101074.06;5059005;28;19927;-88
2022/09/23 09:17:44;;;;;;;;;;;;;;;42.93;7.88;101078.13;5051057;28;19925;-88
2022/09/23 09:20:29;;;;;;;;;;;;;;;43.42;7.63;101076.69;5027950;28;19939;-88
2022/09/23 09:23:01;;;;;;;;;;;;;;;43.19;7.83;101074.63;5036685;28;19917;-89
2022/09/23 09:25:52;;;;;;;;;;;;;;;44.49;7.17;101077.72;5016909;28;19967;-90
2022/09/23 09:28:26;;;;;;;;;;;;;;;43.00;7.51;101077.47;5020911;28;19920;-92
2022/09/23 09:30:53;;;;;;;;;;;;;;;39.76;9.62;101080.06;5014883;28;19920;-88
2022/09/23 09:33:19;;;;;;;;;;;;;;;37.58;11.13;101087.97;5002818;28;19920;-88
2022/09/23 09:36:07;;;;;;;;;;;;;;;35.75;12.40;101072.78;5032317;28;19916;-88
2022/09/23 09:38:33;;;;;;;;;;;;;;;34.60;13.51;101077.78;5019220;28;20418;-88
2022/09/23 09:41:01;;;;;;;;;;;;;;;33.57;14.23;101078.13;5035417;28;19912;-91
2022/09/23 09:43:27;;;;;;;;;;;;;;;34.44;13.80;101077.28;5040547;28;19923;-89
2022/09/23 09:46:12;;;;;;;;;;;;;;;36.10;12.45;101073.78;5027172;28;19913;-89
2022/09/23 09:48:39;;;;;;;;;;;;;;;38.56;11.27;101070.38;5040127;28;21057;-90
2022/09/23 09:51:23;;;;;;;;;;;;;;;39.80;10.11;101081.81;5010545;28;19959;-90
2022/09/23 09:53:51;;;;;;;;;;;;;;;36.76;13.44;101079.41;5003131;28;19921;-90
2022/09/23 09:56:17;;;;;;;;;;;;;;;34.46;15.24;101083.38;5020317;28;19917;-88
2022/09/23 09:58:46;;;;;;;;;;;;;;;33.04;16.45;101075.59;5046168;28;19971;-90
2022/09/23 10:01:27;;;;;;;;;;;;;;;31.50;18.15;101081.03;5046281;28;19924;-88
2022/09/23 10:03:53;;;;;;;;;;;;;;;29.55;20.38;101083.78;5015692;28;19921;-89
2022/09/23 10:06:20;;;;;;;;;;;;;;;26.15;24.79;101091.84;5030788;28;19913;-89
2022/09/23 10:09:12;;;;;;;;;;;;;;;24.42;26.87;101088.50;5041102;28;20392;-90
2022/09/23 10:11:38;;;;;;;;;;;;;;;23.64;28.26;101083.41;5012252;28;19916;-89
2022/09/23 10:14:11;;;;;;;;;;;;;;;22.94;29.49;101076.66;5060457;28;20019;-88
2022/09/23 10:16:37;;;;;;;;;;;;;;;24.93;26.91;101085.13;5006243;28;19960;-90
2022/09/23 10:19:03;;;;;;;;;;;;;;;28.00;23.21;101080.78;5011608;28;19921;-91
2022/09/23 10:21:36;;;;;;;;;;;;;;;26.56;24.85;101075.88;5019929;28;20016;-90
2022/09/23 10:24:08;;;;;;;;;;;;;;;25.91;25.32;101074.72;5022974;28;20389;-90
2022/09/23 10:26:37;;;;;;;;;;;;;;;26.06;25.34;101068.63;5025488;28;19988;-89
2022/09/23 10:29:23;;;;;;;;;;;;;;;25.32;25.77;101063.31;5042650;28;20011;-88
2022/09/23 10:31:52;;;;;;;;;;;;;;;24.74;26.40;101063.31;5035158;28;20000;-90
2022/09/23 10:34:25;;;;;;;;;;;;;;;24.08;27.86;101065.50;5020554;28;19952;-88
2022/09/23 10:37:16;;;;;;;;;;;;;;;23.54;29.03;101070.28;5017379;28;19913;-89
2022/09/23 10:48:41;;;;;;;;;;;;;;;28.28;21.76;101060.22;4964562;28;19927;-91
2022/09/23 10:51:14;;;;;;;;;;;;;;;28.73;20.73;101061.53;4999192;28;19917;-89
2022/09/23 10:53:57;;;;;;;;;;;;;;;27.77;21.84;101049.69;5018992;28;19917;-90
2022/09/23 10:56:29;;;;;;;;;;;;;;;27.47;22.50;101041.22;5004295;28;19917;-90
2022/09/23 10:59:12;;;;;;;;;;;;;;;29.29;21.20;101040.56;5019618;28;20004;-89
2022/09/23 11:01:42;;;;;;;;;;;;;;;29.06;20.65;101040.00;5016469;28;19920;-90
2022/09/23 11:04:26;;;;;;;;;;;;;;;30.18;19.68;101040.97;5003532;28;19922;-90
2022/09/23 11:07:13;;;;;;;;;;;;;;;29.38;20.12;101036.13;5009545;28;19914;-91
2022/09/23 11:09:39;;;;;;;;;;;;;;;26.86;22.69;101047.00;5006256;28;20382;-91
2022/09/23 11:12:33;;;;;;;;;;;;;;;26.42;23.59;101044.25;5025044;28;19917;-90
2022/09/23 11:15:08;;;;;;;;;;;;;;;23.48;28.28;101050.09;5018979;28;20300;-88
2022/09/23 11:17:55;;;;;;;;;;;;;;;21.85;31.54;101046.38;5034746;28;19974;-88
2022/09/23 11:20:50;;;;;;;;;;;;;;;;;;;;;
2022/09/23 11:23:44;;;;;;;;;;;;;;;22.40;32.97;101035.44;5038109;28;19917;-88
2022/09/23 11:26:18;;;;;;;;;;;;;;;23.73;31.20;101036.13;5034786;28;19917;-90
2022/09/23 11:28:49;;;;;;;;;;;;;;;23.49;29.73;101018.03;5015900;28;19913;-92
2022/09/23 11:31:19;;;;;;;;;;;;;;;24.32;31.53;101018.75;5021634;28;19917;-92
2022/09/23 11:34:04;;;;;;;;;;;;;;;23.25;29.29;101018.00;5038431;28;19967;-89
2022/09/23 11:36:32;;;;;;;;;;;;;;;22.62;30.49;101013.03;5022226;28;19923;-94
2022/09/23 11:38:58;;;;;;;;;;;;;;;22.49;31.06;101012.13;5024993;28;19924;-91
2022/09/23 11:41:37;;;;;;;;;;;;;;;21.73;31.93;101015.31;5027896;28;19920;-95
2022/09/23 11:44:13;;;;;;;;;;;;;;;21.60;31.50;101017.13;5086830;23;19952;-88
2022/09/23 11:46:40;;;;;;;;;;;;;;;21.57;32.35;101016.75;5050400;28;19917;-89
2022/09/23 11:49:11;;;;;;;;;;;;;;;21.13;32.85;101013.94;5037915;28;19924;-88
2022/09/23 11:51:36;;;;;;;;;;;;;;;20.52;33.68;101011.78;5042136;28;20012;-89
2022/09/23 11:54:10;;;;;;;;;;;;;;;20.12;35.40;101017.44;5051514;28;19916;-86
2022/09/23 11:56:41;;;;;;;;;;;;;;;20.02;35.73;101015.16;5012278;28;19921;-90
2022/09/23 11:59:14;;;;;;;;;;;;;;;19.73;36.53;101017.31;5021040;28;19913;-89
2022/09/23 12:01:48;;;;;;;;;;;;;;;19.49;36.82;101013.31;5036763;28;19923;-86
2022/09/23 12:04:32;;;;;;;;;;;;;;;19.46;37.35;101021.94;5018607;28;19913;-90
2022/09/23 12:07:09;;;;;;;;;;;;;;;19.16;37.21;101018.78;5034573;28;19951;-87
2022/09/23 12:09:59;;;;;;;;;;;;;;;19.17;37.17;101028.63;5038094;28;19916;-85
2022/09/23 12:12:46;;;;;;;;;;;;;;;19.27;38.99;101044.56;5032595;28;19923;-87
2022/09/23 12:15:30;;;;;;;;;;;;;;;18.87;48.76;101058.13;5039887;28;19917;-89
2022/09/23 12:18:02;;;;;;;;;;;;;;;18.27;48.95;101072.34;5036961;28;19920;-86
2022/09/23 12:20:41;;;;;;;;;;;;;;;17.69;48.49;101085.34;5034101;28;19928;-86
2022/09/23 12:23:14;;;;;;;;;;;;;;;17.03;54.23;101102.72;5033247;28;19913;-86
2022/09/23 12:25:45;;;;;;;;;;;;;;;16.36;57.08;101101.03;5033199;28;19912;-87
2022/09/23 12:28:12;;;;;;;;;;;;;;;16.07;56.99;101104.59;5032170;28;20067;-85
2022/09/23 12:30:37;;;;;;;;;;;;;;;16.15;60.56;101093.66;5033279;28;20262;-86
2022/09/23 12:33:43;;;;;;;;;;;;;;;16.15;60.35;101093.66;5024099;28;19950;-84
2022/09/23 12:36:09;;;;;;;;;;;;;;;15.84;57.44;101082.97;5042260;28;20021;-85
2022/09/23 12:38:51;;;;;;;;;;;;;;;15.88;55.23;101075.34;5024872;28;19948;-90
2022/09/23 12:41:25;;;;;;;;;;;;;;;15.95;59.03;101077.09;5018794;28;20294;-84
2022/09/23 12:43:55;;;;;;;;;;;;;;;15.95;54.36;101081.69;5052574;28;19928;-85
2022/09/23 12:46:26;;;;;;;;;;;;;;;15.98;57.92;101078.59;5046612;28;20070;-87
2022/09/23 12:48:59;;;;;;;;;;;;;;;15.80;56.89;101071.69;5066286;28;19930;-86
2022/09/23 12:51:25;;;;;;;;;;;;;;;15.53;58.62;101067.66;5066901;28;19916;-89
2022/09/23 12:53:53;;;;;;;;;;;;;;;15.51;59.50;101068.88;5043190;28;19920;-88
2022/09/23 12:56:20;;;;;;;;;;;;;;;15.35;58.52;101070.69;5068770;28;19975;-92
2022/09/23 12:58:45;;;;;;;;;;;;;;;15.23;58.76;101066.75;5035712;28;19916;-86
2022/09/23 13:01:17;;;;;;;;;;;;;;;15.21;58.70;101066.06;5038277;28;20285;-89
2022/09/23 13:07:15;;;;;;;;;;;;;;;15.20;60.83;101070.66;5059346;28;20403;-90
2022/09/23 13:09:41;;;;;;;;;;;;;;;15.29;62.12;101066.03;5038845;28;19952;-89
2022/09/23 13:12:14;;;;;;;;;;;;;;;15.40;62.78;101062.03;5038342;28;19912;-88
2022/09/23 13:14:41;;;;;;;;;;;;;;;15.45;62.17;101061.47;5036698;28;19913;-91
2022/09/23 13:17:19;;;;;;;;;;;;;;;15.57;63.32;101062.75;5055099;28;19920;-90
2022/09/23 13:19:45;;;;;;;;;;;;;;;15.79;63.23;101064.56;5049457;28;20364;-88